LAN007 SCEL-SCIE
Flight info
| Callsign | LAN007 |
|---|---|
| Flight time | N/A |
| Altitude | 29000 |
| Route | GELUS5B GELUS UQ809 ARUNI ARUNI6C |
| Aircraft | A20N/M-SDE2E3FGHIRWXY/LB1 |
Departure
| Time | N/A |
|---|---|
| Airport | Comodoro Arturo Merino Benítez International Airport (SCEL) |
Arrival
| Time | 2026-04-21 16:25 |
|---|---|
| Airport | Carriel Sur International Airport (SCIE) |
| Time | Latitude | Longitude | Altitude | Speed | Heading |
|---|---|---|---|---|---|
| 2026-04-21 16:14 | -36.23182 | -72.70054 | 10199 ft | 296 kts | 213° |
| 2026-04-21 16:14 | -36.24938 | -72.71378 | 9873 ft | 292 kts | 213° |
| 2026-04-21 16:15 | -36.26658 | -72.72678 | 9481 ft | 290 kts | 213° |
| 2026-04-21 16:15 | -36.28378 | -72.73981 | 9073 ft | 289 kts | 213° |
| 2026-04-21 16:15 | -36.30085 | -72.75275 | 8711 ft | 286 kts | 213° |
| 2026-04-21 16:15 | -36.31764 | -72.76548 | 8357 ft | 284 kts | 212° |
| 2026-04-21 16:16 | -36.33457 | -72.77832 | 7999 ft | 282 kts | 212° |
| 2026-04-21 16:16 | -36.35116 | -72.79090 | 7650 ft | 280 kts | 212° |
| 2026-04-21 16:16 | -36.36759 | -72.80337 | 7297 ft | 278 kts | 212° |
| 2026-04-21 16:16 | -36.38404 | -72.81586 | 6946 ft | 276 kts | 211° |
| 2026-04-21 16:17 | -36.40042 | -72.82822 | 6585 ft | 274 kts | 211° |
| 2026-04-21 16:17 | -36.41674 | -72.84042 | 6224 ft | 271 kts | 211° |
| 2026-04-21 16:17 | -36.43286 | -72.85243 | 5885 ft | 269 kts | 211° |
| 2026-04-21 16:17 | -36.44878 | -72.86431 | 5528 ft | 267 kts | 211° |
| 2026-04-21 16:18 | -36.46465 | -72.87620 | 5203 ft | 266 kts | 210° |
| 2026-04-21 16:18 | -36.48049 | -72.88808 | 4834 ft | 265 kts | 210° |
| 2026-04-21 16:18 | -36.49527 | -72.89916 | 4607 ft | 259 kts | 210° |
| 2026-04-21 16:18 | -36.51042 | -72.91048 | 4417 ft | 256 kts | 210° |
| 2026-04-21 16:19 | -36.52654 | -72.92049 | 4080 ft | 261 kts | 204° |
| 2026-04-21 16:19 | -36.54304 | -72.92989 | 3745 ft | 260 kts | 204° |
| 2026-04-21 16:19 | -36.55945 | -72.93936 | 3534 ft | 253 kts | 204° |
| 2026-04-21 16:19 | -36.57467 | -72.94813 | 3499 ft | 236 kts | 204° |
| 2026-04-21 16:20 | -36.58897 | -72.95651 | 3501 ft | 219 kts | 204° |
| 2026-04-21 16:20 | -36.60250 | -72.96445 | 3493 ft | 208 kts | 204° |
| 2026-04-21 16:20 | -36.61530 | -72.97184 | 3426 ft | 198 kts | 204° |
| 2026-04-21 16:20 | -36.62762 | -72.97893 | 3186 ft | 190 kts | 204° |
| 2026-04-21 16:21 | -36.63959 | -72.98584 | 2824 ft | 189 kts | 204° |
| 2026-04-21 16:21 | -36.65124 | -72.99256 | 2497 ft | 186 kts | 204° |
| 2026-04-21 16:21 | -36.66224 | -72.99895 | 2396 ft | 161 kts | 204° |
| 2026-04-21 16:21 | -36.67192 | -73.00457 | 2162 ft | 148 kts | 204° |
| 2026-04-21 16:22 | -36.68104 | -73.00983 | 1875 ft | 138 kts | 204° |
| 2026-04-21 16:22 | -36.68932 | -73.01465 | 1679 ft | 127 kts | 205° |
| 2026-04-21 16:22 | -36.69786 | -73.01961 | 1657 ft | 140 kts | 205° |
| 2026-04-21 16:22 | -36.70670 | -73.02475 | 1472 ft | 141 kts | 205° |
| 2026-04-21 16:23 | -36.71549 | -73.02985 | 1286 ft | 137 kts | 206° |
| 2026-04-21 16:23 | -36.72420 | -73.03491 | 1095 ft | 139 kts | 206° |
| 2026-04-21 16:23 | -36.73293 | -73.03999 | 890 ft | 137 kts | 206° |
| 2026-04-21 16:23 | -36.74154 | -73.04500 | 712 ft | 138 kts | 206° |
| 2026-04-21 16:24 | -36.75003 | -73.04994 | 500 ft | 134 kts | 207° |
| 2026-04-21 16:24 | -36.75853 | -73.05491 | 212 ft | 135 kts | 207° |
| 2026-04-21 16:24 | -36.76671 | -73.05978 | 62 ft | 116 kts | 205° |
| 2026-04-21 16:24 | -36.77217 | -73.06300 | 57 ft | 57 kts | 204° |
| 2026-04-21 16:25 | -36.77470 | -73.06444 | 64 ft | 35 kts | 203° |
| 2026-04-21 16:25 | -36.77684 | -73.06567 | 59 ft | 28 kts | 204° |
| 2026-04-21 16:25 | -36.77858 | -73.06667 | 63 ft | 27 kts | 206° |
| 2026-04-21 16:25 | -36.77978 | -73.06631 | 57 ft | 15 kts | 121° |
| 2026-04-21 16:26 | -36.78004 | -73.06518 | 60 ft | 12 kts | 57° |
| 2026-04-21 16:26 | -36.77938 | -73.06470 | 58 ft | 12 kts | 22° |
| 2026-04-21 16:26 | -36.77853 | -73.06420 | 59 ft | 15 kts | 26° |
| 2026-04-21 16:26 | -36.77746 | -73.06357 | 59 ft | 18 kts | 25° |
| 2026-04-21 16:27 | -36.77625 | -73.06289 | 55 ft | 20 kts | 24° |
| 2026-04-21 16:27 | -36.77507 | -73.06215 | 59 ft | 6 kts | 61° |
| 2026-04-21 16:27 | -36.77508 | -73.06152 | 60 ft | 9 kts | 109° |
| 2026-04-21 16:27 | -36.77533 | -73.06071 | 58 ft | 9 kts | 102° |
| 2026-04-21 16:28 | -36.77538 | -73.06014 | 60 ft | 7 kts | 90° |
| 2026-04-21 16:28 | -36.77567 | -73.05989 | 54 ft | 6 kts | 171° |
| 2026-04-21 16:28 | -36.77594 | -73.05986 | 54 ft | 1 kts | 177° |
| 2026-04-21 16:28 | -36.77601 | -73.05986 | 56 ft | 2 kts | 179° |
| 2026-04-21 16:29 | -36.77602 | -73.05986 | 56 ft | 0 kts | 178° |